NCAR-RAP Real-Time Weather Data

Output produced by METARs form (12 August 2020  18:24 UTC)
found at http://weather.rap.ucar.edu/surface/
 
KDTW 121753Z 10007KT 10SM BKN250 29/12 A3012 RMK AO2 SLP197 T02890117 10289 20183 $
KDTW 121653Z VRB03KT 10SM BKN250 28/11 A3013 RMK AO2 SLP198 T02830106 $
KDTW 121553Z 12005KT 10SM BKN250 26/12 A3013 RMK AO2 SLP200 T02610117 $
KDTW 121453Z 13005KT 10SM BKN250 27/14 A3014 RMK AO2 SLP201 T02670139 CHINO 3L $
KDTW 121353Z 09003KT 10SM BKN250 24/13 A3013 RMK AO2 SLP200 T02440133
KDTW 121253Z 04003KT 10SM BKN250 22/14 A3014 RMK AO2 SLP201 T02170139
KDTW 121153Z 00000KT 10SM FEW140 BKN250 19/13 A3013 RMK AO2 SLP198 T01890133 10194 20161 53015
KDTW 121053Z 33003KT 10SM FEW140 BKN250 17/13 A3011 RMK AO2 SLP193 T01670128 $
KDTW 120953Z 00000KT 10SM BKN250 17/12 A3009 RMK AO2 SLP187 T01720122 $
KDTW 120853Z 33003KT 10SM SCT250 18/13 A3008 RMK AO2 SLP182 T01780128 53013 $
KDTW 120753Z 00000KT 10SM SCT250 18/13 A3006 RMK AO2 SLP175 T01830128 $
KDTW 120653Z 31003KT 10SM BKN250 17/13 A3005 RMK AO2 SLP171 T01720133 $
KDTW 120553Z 00000KT 10SM BKN250 19/14 A3004 RMK AO2 SLP169 T01940139 10261 20189 53008 $
KDTW 120453Z 00000KT 10SM BKN250 21/14 A3003 RMK AO2 SLP166 T02060139 403060206 $
KDTW 120353Z 00000KT 10SM SCT250 21/12 A3002 RMK AO2 SLP162 T02110122 $
KDTW 120253Z 33003KT 10SM FEW050 SCT250 23/12 A3002 RMK AO2 SLP161 T02280117 51018 $
KDTW 120153Z 34003KT 10SM SCT055 SCT250 23/12 A3001 RMK AO2 SLP158 T02280117 $
KDTW 120053Z 33006KT 10SM SCT055 SCT250 24/11 A2999 RMK AO2 SLP151 T02390111 $
KDTW 112353Z 30006KT 10SM FEW060 SCT250 26/12 A2997 RMK AO2 SLP143 T02610117 10306 20261 53006 $
KDTW 112253Z 32009KT 10SM FEW060 SCT250 28/10 A2996 RMK AO2 SLP139 T02830100 $
KDTW 112153Z 30011KT 10SM FEW060 SCT250 29/13 A2995 RMK AO2 SLP137 T02890128
KDTW 112053Z 32005KT 10SM FEW055 SCT250 29/14 A2995 RMK AO2 SLP135 T02940139 53004
KDTW 111953Z 31008G17KT 10SM FEW055 SCT250 30/16 A2994 RMK AO2 SLP133 T03000156
KDTW 111853Z 31012G17KT 10SM SCT055 30/17 A2994 RMK AO2 SLP133 T03000172
KDTW 111753Z 27012G16KT 10SM SCT045 30/17 A2993 RMK AO2 SLP131 T03000172 10306 20222 51003 $
KDTW 111653Z 27011KT 10SM SCT035 SCT055 29/18 A2993 RMK AO2 SLP131 T02890183 $
KDTW 111553Z 27009KT 10SM SCT030 28/19 A2994 RMK AO2 SLP131 T02780189
KDTW 111453Z 29010G17KT 10SM FEW020 SCT035 BKN230 27/20 A2993 RMK AO2 SLP128 T02720200 51007
KDTW 111422Z 29011KT 10SM SCT022 26/19 A2992 RMK AO2 T02610194
KDTW 111353Z 28008KT 10SM BKN015 BKN030 25/20 A2992 RMK AO2 SLP125 T02500200 $
KDTW 111253Z 24009KT 10SM OVC015 24/19 A2992 RMK AO2 SLP125 T02390194 $
KDTW 111244Z 25008KT 10SM BKN015 BKN040 24/19 A2991 RMK AO2 T02390194 $
KDTW 111153Z 23009KT 10SM FEW028 BKN075 OVC200 22/19 A2990 RMK AO2 SLP121 T02220189 10233 20217 51016 $
KDTW 111130Z 22010KT 10SM SCT028 BKN075 OVC200 22/19 A2990 RMK AO2 T02220189 $
KDTW 111053Z 23009KT 10SM BKN022 OVC075 22/18 A2989 RMK AO2 SLP116 T02170183 $
KDTW 110953Z 23007KT 10SM SCT012 BKN020 OVC075 22/18 A2987 RMK AO2 SLP111 T02220183 $
KDTW 110907Z 23007KT 10SM SCT012 BKN020 OVC075 22/18 A2986 RMK AO2 T02220183 $
KDTW 110853Z 25008KT 10SM BKN014 BKN020 OVC075 22/18 A2986 RMK AO2 SLP105 T02220183 55002 $
KDTW 110844Z 25009KT 10SM BKN014 BKN020 OVC075 22/18 A2986 RMK AO2 T02220178 $
KDTW 110810Z 25009KT 10SM BKN025 OVC070 22/18 A2985 RMK AO2 T02220178 $
KDTW 110753Z 23009KT 10SM SCT025 BKN070 OVC150 22/18 A2985 RMK AO2 SLP102 T02220178 $
KDTW 110653Z 21009KT 10SM FEW060 BKN140 OVC200 23/18 A2986 RMK AO2 SLP104 T02280178 $
KDTW 110553Z 24007KT 10SM FEW060 BKN140 OVC190 23/17 A2986 RMK AO2 SLP106 T02330172 10294 20228 53013 $
KDTW 110453Z 21004KT 10SM SCT060 BKN140 OVC190 23/17 A2982 RMK AO2 SLP092 T02330172 403170217 $
KDTW 110353Z 19009KT 10SM FEW060 OVC140 24/18 A2980 RMK AO2 SLP084 T02440183 $
KDTW 110253Z 21012KT 10SM FEW055 SCT080 OVC160 26/19 A2982 RMK AO2 SLP093 T02610189 58017 $
KDTW 110153Z 18010KT 10SM FEW055 SCT100 OVC160 28/21 A2985 RMK AO2 SLP104 T02780206 $
KDTW 110053Z 18007KT 10SM FEW050 OVC180 28/20 A2986 RMK AO2 SLP107 T02830200 $
KDTW 102353Z 21009KT 10SM FEW050 OVC200 29/20 A2987 RMK AO2 SLP110 T02940200 10317 20294 55002 $
KDTW 102253Z 18008KT 10SM SCT050 BKN250 30/20 A2986 RMK AO2 SLP106 T03000200 $
KDTW 102153Z 18010KT 10SM SCT045 BKN200 31/21 A2989 RMK AO2 SLP116 T03060206 $
KDTW 102053Z 16010G20KT 10SM BKN045 BKN200 31/21 A2988 RMK AO2 SLP113 T03110211 58034 $
KDTW 101953Z 17014G23KT 10SM BKN045 BKN200 31/21 A2991 RMK AO2 SLP124 T03060211 $
KDTW 101853Z 17011KT 10SM BKN040 BKN055 31/21 A2995 RMK AO2 SLP137 T03060211 $